createdAt,value
2022-12-03T00:01:20.772Z,8.13
2022-12-03T00:03:50.520Z,7.63
2022-12-03T00:06:19.005Z,7.10
2022-12-03T00:08:47.347Z,7.18
2022-12-03T00:11:15.670Z,7.35
2022-12-03T00:13:43.979Z,7.57
2022-12-03T00:16:12.385Z,7.25
2022-12-03T00:18:40.730Z,8.50
2022-12-03T00:21:10.370Z,7.95
2022-12-03T00:23:42.346Z,7.82
2022-12-03T00:26:10.884Z,7.47
2022-12-03T00:28:39.173Z,8.07
2022-12-03T00:31:07.516Z,7.68
2022-12-03T00:33:35.872Z,7.70
2022-12-03T00:36:04.189Z,8.20
2022-12-03T00:38:33.927Z,8.82
2022-12-03T00:41:02.206Z,8.23
2022-12-03T00:43:30.687Z,8.63
2022-12-03T00:45:59.163Z,8.32
2022-12-03T00:48:27.493Z,8.57
2022-12-03T00:50:55.856Z,8.60
2022-12-03T00:53:24.454Z,9.15
2022-12-03T00:55:54.075Z,8.88
2022-12-03T00:58:22.359Z,8.98
2022-12-03T01:00:50.695Z,9.00
2022-12-03T01:03:19.049Z,8.75
2022-12-03T01:05:47.355Z,9.23
2022-12-03T01:08:15.771Z,9.05
2022-12-03T01:10:44.180Z,9.32
2022-12-03T01:13:13.835Z,8.88
2022-12-03T01:15:42.234Z,9.57
2022-12-03T01:18:10.558Z,9.85
2022-12-03T01:20:38.875Z,9.80
2022-12-03T01:23:07.218Z,8.02
2022-12-03T01:25:35.557Z,9.75
2022-12-03T01:28:03.873Z,10.13
2022-12-03T01:30:53.586Z,10.40
2022-12-03T01:33:20.998Z,8.80
2022-12-03T01:35:49.298Z,9.88
2022-12-03T01:38:17.593Z,8.55
2022-12-03T01:40:46.256Z,10.40
2022-12-03T01:43:14.611Z,9.23
2022-12-03T01:45:44.366Z,10.52
2022-12-03T01:48:16.478Z,10.00
2022-12-03T01:50:45.300Z,9.15
2022-12-03T01:53:15.517Z,9.13
2022-12-03T01:55:48.458Z,9.57
2022-12-03T01:58:17.942Z,8.45
2022-12-03T02:00:47.542Z,8.50
2022-12-03T02:03:18.608Z,9.40
2022-12-03T02:05:46.880Z,9.20
2022-12-03T02:08:28.414Z,9.02
2022-12-03T02:10:57.166Z,8.82
2022-12-03T02:13:25.535Z,9.32
2022-12-03T02:15:55.284Z,8.93
2022-12-03T02:18:23.655Z,9.15
2022-12-03T02:21:04.029Z,9.50
2022-12-03T02:23:35.248Z,7.72
2022-12-03T02:26:04.894Z,9.93
2022-12-03T02:28:33.294Z,9.10
2022-12-03T02:31:01.605Z,13.07
2022-12-03T02:33:29.997Z,8.63
2022-12-03T02:36:03.271Z,9.63
2022-12-03T02:38:32.816Z,8.40
2022-12-03T02:41:01.994Z,8.68
2022-12-03T02:43:30.872Z,8.60
2022-12-03T02:46:00.767Z,8.27
2022-12-03T02:48:30.647Z,8.13
2022-12-03T02:51:00.775Z,7.63
2022-12-03T02:53:31.232Z,7.82
2022-12-03T02:56:00.684Z,8.07
2022-12-03T02:58:30.044Z,8.65
2022-12-03T03:01:00.425Z,7.93
2022-12-03T03:03:30.420Z,7.55
2022-12-03T03:05:59.804Z,7.38
2022-12-03T03:08:28.768Z,8.43
2022-12-03T03:10:57.336Z,7.70
2022-12-03T03:13:25.690Z,8.02
2022-12-03T03:15:54.073Z,7.45
2022-12-03T03:18:23.831Z,7.00
2022-12-03T03:20:52.643Z,7.60
2022-12-03T03:23:21.942Z,7.70
2022-12-03T03:25:51.659Z,7.22
2022-12-03T03:28:23.556Z,7.22
2022-12-03T03:30:52.219Z,7.35
2022-12-03T03:33:20.555Z,6.85
2022-12-03T03:35:50.857Z,7.10
2022-12-03T03:38:20.314Z,7.28
2022-12-03T03:40:49.839Z,7.75
2022-12-03T03:43:18.458Z,6.63
2022-12-03T03:45:46.906Z,7.20
2022-12-03T03:48:15.681Z,6.18
2022-12-03T03:50:44.849Z,7.28
2022-12-03T03:53:14.725Z,6.72
2022-12-03T03:55:43.245Z,6.90
2022-12-03T03:58:11.626Z,6.93
2022-12-03T04:00:39.944Z,6.50
2022-12-03T04:03:08.280Z,6.03
2022-12-03T04:05:36.655Z,6.32
2022-12-03T04:08:05.077Z,6.10
2022-12-03T04:11:03.721Z,6.38
2022-12-03T04:13:32.148Z,5.95
2022-12-03T04:16:00.550Z,6.47
2022-12-03T04:18:43.936Z,6.22
2022-12-03T04:21:30.364Z,6.20
2022-12-03T04:23:58.716Z,7.13
2022-12-03T04:26:46.481Z,7.22
2022-12-03T04:29:17.211Z,6.05
2022-12-03T04:32:03.107Z,7.40
2022-12-03T04:34:49.301Z,6.32
2022-12-03T04:37:17.676Z,6.50
2022-12-03T04:39:45.983Z,6.65
2022-12-03T04:42:15.654Z,6.03
2022-12-03T04:44:43.955Z,6.68
2022-12-03T04:47:13.057Z,6.13
2022-12-03T04:49:42.137Z,5.97
2022-12-03T04:52:10.807Z,6.38
2022-12-03T04:54:39.706Z,6.75
2022-12-03T04:57:08.394Z,6.20
2022-12-03T04:59:38.248Z,6.70
2022-12-03T05:02:07.287Z,6.20
2022-12-03T05:04:36.013Z,6.63
2022-12-03T05:07:04.332Z,6.40
2022-12-03T05:09:33.982Z,6.95
2022-12-03T05:12:02.683Z,6.60
2022-12-03T05:14:30.966Z,6.22
2022-12-03T05:17:00.651Z,7.05
2022-12-03T05:19:42.991Z,7.15
2022-12-03T05:22:11.367Z,6.63
2022-12-03T05:24:39.678Z,7.18
2022-12-03T05:27:08.003Z,7.78
2022-12-03T05:29:36.293Z,7.65
2022-12-03T05:32:06.086Z,7.30
2022-12-03T05:34:34.382Z,6.97
2022-12-03T05:37:02.670Z,6.22
2022-12-03T05:39:30.994Z,6.60
2022-12-03T05:42:16.961Z,6.90
2022-12-03T05:44:45.317Z,6.45
2022-12-03T05:47:14.988Z,6.47
2022-12-03T05:49:43.305Z,6.97
2022-12-03T05:52:11.673Z,6.57
2022-12-03T05:54:40.075Z,6.43
2022-12-03T05:57:08.390Z,6.38
2022-12-03T05:59:36.685Z,7.07
2022-12-03T06:02:05.082Z,6.50
2022-12-03T06:04:34.728Z,6.07
2022-12-03T06:07:03.076Z,6.45
2022-12-03T06:09:31.395Z,6.65
2022-12-03T06:11:59.705Z,6.15
2022-12-03T06:14:30.054Z,6.07
2022-12-03T06:16:58.989Z,6.55
2022-12-03T06:19:27.294Z,5.78
2022-12-03T06:21:56.964Z,6.50
2022-12-03T06:24:25.965Z,6.65
2022-12-03T06:26:54.312Z,6.25
2022-12-03T06:29:22.685Z,6.43
2022-12-03T06:31:51.029Z,6.50
2022-12-03T06:34:19.384Z,6.38
2022-12-03T06:36:49.904Z,7.03
2022-12-03T06:39:19.723Z,6.93
2022-12-03T06:41:48.036Z,6.22
2022-12-03T06:44:16.928Z,6.18
2022-12-03T06:46:45.307Z,6.68
2022-12-03T06:49:13.625Z,5.88
2022-12-03T06:51:41.923Z,5.65
2022-12-03T06:54:10.233Z,6.63
2022-12-03T06:56:45.132Z,6.55
2022-12-03T06:59:14.172Z,7.00
2022-12-03T07:01:42.682Z,6.20
2022-12-03T07:04:11.037Z,6.60
2022-12-03T07:06:39.311Z,6.22
2022-12-03T07:09:07.611Z,6.53
2022-12-03T07:11:40.643Z,5.78
2022-12-03T07:14:11.547Z,6.30
2022-12-03T07:16:42.996Z,6.85
2022-12-03T07:19:11.888Z,6.47
2022-12-03T07:21:40.212Z,6.45
2022-12-03T07:24:08.691Z,6.43
2022-12-03T07:26:37.043Z,7.03
2022-12-03T07:29:05.694Z,7.13
2022-12-03T07:31:35.420Z,6.70
2022-12-03T07:34:03.804Z,8.00
2022-12-03T07:36:32.193Z,7.18
2022-12-03T07:39:00.558Z,8.10
2022-12-03T07:41:29.104Z,7.72
2022-12-03T07:43:57.997Z,7.95
2022-12-03T07:46:26.360Z,8.05
2022-12-03T07:48:56.108Z,8.38
2022-12-03T07:51:30.489Z,7.63
2022-12-03T07:54:00.418Z,7.47
2022-12-03T07:56:28.781Z,7.32
2022-12-03T07:58:57.247Z,8.57
2022-12-03T08:01:25.683Z,7.25
2022-12-03T08:03:55.372Z,8.02
2022-12-03T08:06:23.680Z,8.30
2022-12-03T08:08:52.088Z,8.05
2022-12-03T08:11:20.566Z,7.72
2022-12-03T08:13:48.907Z,7.93
2022-12-03T08:16:18.299Z,8.68
2022-12-03T08:18:47.172Z,8.95
2022-12-03T08:21:17.859Z,8.13
2022-12-03T08:23:46.359Z,8.40
2022-12-03T08:26:18.833Z,8.35
2022-12-03T08:28:47.663Z,8.00
2022-12-03T08:31:19.820Z,8.13
2022-12-03T08:33:49.305Z,7.45
2022-12-03T08:36:21.166Z,7.75
2022-12-03T08:38:51.872Z,7.57
2022-12-03T08:41:41.141Z,8.40
2022-12-03T08:44:20.859Z,8.93
2022-12-03T08:46:51.415Z,8.63
2022-12-03T08:49:21.099Z,8.82
2022-12-03T08:51:51.780Z,8.35
2022-12-03T08:54:21.238Z,8.05
2022-12-03T08:56:49.553Z,9.13
2022-12-03T08:59:30.677Z,8.32
2022-12-03T09:01:59.824Z,8.05
2022-12-03T09:04:30.759Z,8.77
2022-12-03T09:07:00.493Z,8.70
2022-12-03T09:09:29.051Z,10.00
2022-12-03T09:11:57.482Z,10.25
2022-12-03T09:14:25.809Z,8.75
2022-12-03T09:16:55.793Z,9.95
2022-12-03T09:19:24.950Z,9.10
2022-12-03T09:21:53.255Z,9.52
2022-12-03T09:24:23.276Z,9.63
2022-12-03T09:26:51.797Z,8.95
2022-12-03T09:29:20.135Z,9.13
2022-12-03T09:31:48.530Z,9.05
2022-12-03T09:34:16.975Z,9.45
2022-12-03T09:36:45.541Z,9.43
2022-12-03T09:39:13.870Z,10.40
2022-12-03T09:41:45.418Z,10.10
2022-12-03T09:44:17.922Z,9.40
2022-12-03T09:46:46.977Z,10.43
2022-12-03T09:49:16.948Z,10.30
2022-12-03T09:51:45.761Z,10.05
2022-12-03T09:54:17.895Z,10.55
2022-12-03T09:56:47.570Z,10.27
2022-12-03T09:59:16.476Z,10.32
2022-12-03T10:01:45.445Z,9.43
2022-12-03T10:04:14.028Z,10.13
2022-12-03T10:06:45.852Z,10.88
2022-12-03T10:09:17.138Z,10.85
2022-12-03T10:11:45.538Z,11.15
2022-12-03T10:14:16.023Z,9.88
2022-12-03T10:16:44.524Z,10.55
2022-12-03T10:19:18.014Z,11.35
2022-12-03T10:21:46.637Z,11.32
2022-12-03T10:24:26.747Z,11.25
2022-12-03T10:26:56.373Z,10.52
2022-12-03T10:29:31.633Z,10.80
2022-12-03T10:32:02.384Z,10.13
2022-12-03T10:34:31.746Z,10.88
2022-12-03T10:37:10.862Z,10.82
2022-12-03T10:39:55.946Z,11.68
2022-12-03T10:42:24.968Z,10.00
2022-12-03T10:45:08.537Z,10.95
2022-12-03T10:47:38.385Z,11.02
2022-12-03T10:50:08.081Z,10.55
2022-12-03T10:52:36.537Z,11.48
2022-12-03T10:55:04.933Z,11.70
2022-12-03T10:57:33.486Z,11.15
2022-12-03T11:00:01.823Z,12.40
2022-12-03T11:02:30.221Z,12.73
2022-12-03T11:05:00.077Z,11.30
2022-12-03T11:07:28.965Z,10.95
2022-12-03T11:09:58.792Z,11.55
2022-12-03T11:12:29.015Z,12.00
2022-12-03T11:15:06.152Z,11.57
2022-12-03T11:17:45.398Z,11.75
2022-12-03T11:20:35.909Z,12.07
2022-12-03T11:23:04.709Z,12.10
2022-12-03T11:25:46.835Z,11.45
2022-12-03T11:28:35.149Z,11.07
2022-12-03T11:31:09.049Z,11.43
2022-12-03T11:33:38.542Z,11.25
2022-12-03T11:36:31.757Z,11.40
2022-12-03T11:39:05.114Z,11.07
2022-12-03T11:41:34.186Z,11.75
2022-12-03T11:44:07.695Z,12.27
2022-12-03T11:46:41.392Z,12.13
2022-12-03T11:49:23.716Z,12.32
2022-12-03T11:51:53.672Z,12.05
2022-12-03T11:54:23.675Z,11.85
2022-12-03T11:56:52.613Z,12.93
2022-12-03T11:59:21.121Z,11.20
2022-12-03T12:01:49.571Z,14.55
2022-12-03T12:04:35.020Z,12.38
2022-12-03T12:07:05.406Z,14.60
2022-12-03T12:09:50.216Z,13.02
2022-12-03T12:12:22.888Z,12.30
2022-12-03T12:14:52.809Z,13.18
2022-12-03T12:17:31.503Z,13.65
2022-12-03T12:20:13.486Z,10.85
2022-12-03T12:22:43.369Z,12.13
2022-12-03T12:25:26.663Z,11.55
2022-12-03T12:27:55.136Z,11.45
2022-12-03T12:30:24.171Z,12.23
2022-12-03T12:32:53.186Z,12.45
2022-12-03T12:35:22.574Z,12.15
2022-12-03T12:38:00.059Z,12.05
2022-12-03T12:40:30.016Z,12.05
2022-12-03T12:42:59.061Z,11.90
2022-12-03T12:45:28.282Z,11.18
2022-12-03T12:48:03.109Z,11.50
2022-12-03T12:50:32.884Z,11.48
2022-12-03T12:53:03.477Z,11.73
2022-12-03T12:55:31.975Z,12.93
2022-12-03T12:58:02.022Z,12.63
2022-12-03T13:00:30.378Z,13.48
2022-12-03T13:03:00.285Z,11.30
2022-12-03T13:05:28.920Z,12.13
2022-12-03T13:07:57.673Z,13.02
2022-12-03T13:10:36.639Z,11.77
2022-12-03T13:13:23.022Z,10.85
2022-12-03T13:15:53.239Z,11.68
2022-12-03T13:18:24.147Z,13.30
2022-12-03T13:20:52.841Z,11.00
2022-12-03T13:23:32.040Z,12.40
2022-12-03T13:26:18.766Z,13.05
2022-12-03T13:28:53.247Z,13.30
2022-12-03T13:31:26.250Z,11.65
2022-12-03T13:33:55.014Z,11.75
2022-12-03T13:36:24.711Z,12.30
2022-12-03T13:38:54.778Z,12.65
2022-12-03T13:41:42.388Z,12.57
2022-12-03T13:44:18.304Z,12.27
2022-12-03T13:46:47.121Z,12.27
2022-12-03T13:49:17.705Z,11.88
2022-12-03T13:51:47.227Z,13.43
2022-12-03T13:54:17.705Z,13.02
2022-12-03T13:56:47.781Z,12.15
2022-12-03T13:59:19.311Z,12.40
2022-12-03T14:01:50.081Z,13.13
2022-12-03T14:04:18.516Z,11.50
2022-12-03T14:06:48.760Z,11.15
2022-12-03T14:09:17.215Z,11.88
2022-12-03T14:12:03.218Z,12.52
2022-12-03T14:14:32.986Z,12.60
2022-12-03T14:17:01.325Z,12.73
2022-12-03T14:19:29.651Z,11.90
2022-12-03T14:21:57.994Z,11.82
2022-12-03T14:24:26.322Z,12.10
2022-12-03T14:26:54.699Z,11.60
2022-12-03T14:29:23.037Z,12.55
2022-12-03T14:31:53.069Z,14.90
2022-12-03T14:34:21.387Z,11.82
2022-12-03T14:36:49.793Z,12.60
2022-12-03T14:39:18.082Z,14.48
2022-12-03T14:42:04.255Z,12.18
2022-12-03T14:44:33.627Z,13.30
2022-12-03T14:47:03.856Z,12.13
2022-12-03T14:49:32.463Z,12.45
2022-12-03T14:52:01.027Z,12.38
2022-12-03T14:54:29.389Z,12.30
2022-12-03T14:56:57.827Z,12.45
2022-12-03T14:59:28.081Z,13.57
2022-12-03T15:01:57.044Z,13.77
2022-12-03T15:04:26.790Z,14.10
2022-12-03T15:06:55.212Z,13.02
2022-12-03T15:09:23.563Z,13.20
2022-12-03T15:11:51.937Z,14.13
2022-12-03T15:14:20.313Z,13.88
2022-12-03T15:16:48.728Z,12.07
2022-12-03T15:19:17.114Z,13.43
2022-12-03T15:21:46.828Z,12.80
2022-12-03T15:24:30.328Z,12.90
2022-12-03T15:26:58.860Z,14.05
2022-12-03T15:29:27.775Z,12.82
2022-12-03T15:31:56.278Z,13.05
2022-12-03T15:34:24.655Z,12.40
2022-12-03T15:36:54.298Z,13.02
2022-12-03T15:39:23.812Z,14.60
2022-12-03T15:41:52.120Z,12.88
2022-12-03T15:44:20.470Z,13.32
2022-12-03T15:46:48.860Z,13.18
2022-12-03T15:49:17.858Z,12.60
2022-12-03T15:51:46.366Z,12.38
2022-12-03T15:54:17.560Z,11.73
2022-12-03T15:56:46.015Z,13.27
2022-12-03T15:59:14.398Z,13.75
2022-12-03T16:01:42.858Z,13.30
2022-12-03T16:04:11.304Z,13.70
2022-12-03T16:06:39.685Z,12.52
2022-12-03T16:09:08.165Z,12.90
2022-12-03T16:11:37.837Z,13.50
2022-12-03T16:14:06.113Z,12.68
2022-12-03T16:16:34.485Z,12.93
2022-12-03T16:19:02.931Z,12.73
2022-12-03T16:21:31.310Z,12.35
2022-12-03T16:24:00.270Z,13.05
2022-12-03T16:26:28.636Z,12.85
2022-12-03T16:28:58.358Z,13.07
2022-12-03T16:31:26.821Z,12.48
2022-12-03T16:33:55.223Z,13.07
2022-12-03T16:36:23.603Z,13.30
2022-12-03T16:38:52.399Z,13.93
2022-12-03T16:41:22.259Z,13.07
2022-12-03T16:43:50.668Z,13.05
2022-12-03T16:46:26.106Z,12.70
2022-12-03T16:48:56.309Z,14.23
2022-12-03T16:51:26.671Z,13.60
2022-12-03T16:53:55.309Z,14.05
2022-12-03T16:56:23.708Z,11.93
2022-12-03T16:58:52.055Z,12.77
2022-12-03T17:01:23.406Z,12.63
2022-12-03T17:03:52.086Z,12.27
2022-12-03T17:06:20.574Z,13.23
2022-12-03T17:08:49.604Z,16.17
2022-12-03T17:11:18.760Z,11.95
2022-12-03T17:13:47.370Z,12.70
2022-12-03T17:16:15.766Z,11.77
2022-12-03T17:18:45.529Z,12.68
2022-12-03T17:21:13.920Z,13.30
2022-12-03T17:23:44.709Z,13.25
2022-12-03T17:26:30.927Z,13.15
2022-12-03T17:29:05.197Z,13.10
2022-12-03T17:31:41.422Z,13.07
2022-12-03T17:34:11.584Z,11.98
2022-12-03T17:36:39.925Z,12.73
2022-12-03T17:39:08.235Z,12.90
2022-12-03T17:41:36.603Z,14.35
2022-12-03T17:44:11.331Z,13.50
2022-12-03T17:46:41.393Z,12.48
2022-12-03T17:49:09.777Z,13.32
2022-12-03T17:51:39.500Z,13.32
2022-12-03T17:54:08.022Z,13.43
2022-12-03T17:56:36.430Z,14.32
2022-12-03T17:59:04.794Z,14.57
2022-12-03T18:01:33.691Z,13.13
2022-12-03T18:04:02.841Z,13.85
2022-12-03T18:06:34.705Z,13.40
2022-12-03T18:09:19.895Z,13.43
2022-12-03T18:11:48.230Z,13.57
2022-12-03T18:14:16.566Z,13.07
2022-12-03T18:16:44.860Z,13.60
2022-12-03T18:19:13.219Z,13.93
2022-12-03T18:21:41.598Z,12.65
2022-12-03T18:24:10.171Z,13.65
2022-12-03T18:26:39.927Z,11.93
2022-12-03T18:29:08.311Z,12.20
2022-12-03T18:31:36.728Z,13.45
2022-12-03T18:34:05.435Z,12.73
2022-12-03T18:36:35.913Z,12.02
2022-12-03T18:39:05.273Z,12.02
2022-12-03T18:41:34.901Z,12.15
2022-12-03T18:44:11.574Z,12.65
2022-12-03T18:46:55.893Z,12.43
2022-12-03T18:49:24.575Z,12.68
2022-12-03T18:51:58.877Z,12.65
2022-12-03T18:54:35.079Z,12.35
2022-12-03T18:57:03.445Z,11.95
2022-12-03T18:59:33.207Z,12.30
2022-12-03T19:02:01.610Z,11.88
2022-12-03T19:04:30.047Z,12.43
2022-12-03T19:06:58.694Z,13.43
2022-12-03T19:09:26.986Z,12.38
2022-12-03T19:11:55.568Z,12.02
2022-12-03T19:14:24.307Z,12.05
2022-12-03T19:17:17.176Z,12.85
2022-12-03T19:19:46.342Z,10.90
2022-12-03T19:22:14.929Z,11.88
2022-12-03T19:24:43.638Z,12.35
2022-12-03T19:27:17.784Z,12.07
2022-12-03T19:29:49.146Z,11.27
2022-12-03T19:32:18.843Z,12.00
2022-12-03T19:34:47.138Z,12.32
2022-12-03T19:37:15.476Z,11.57
2022-12-03T19:39:43.816Z,11.93
2022-12-03T19:42:12.149Z,12.52
2022-12-03T19:44:40.497Z,11.13
2022-12-03T19:47:09.162Z,11.73
2022-12-03T19:49:38.830Z,10.90
2022-12-03T19:52:07.161Z,11.00
2022-12-03T19:54:35.615Z,11.43
2022-12-03T19:57:03.918Z,11.82
2022-12-03T19:59:32.273Z,12.27
2022-12-03T20:02:00.669Z,10.85
2022-12-03T20:04:29.140Z,11.15
2022-12-03T20:06:58.785Z,11.13
2022-12-03T20:09:27.169Z,10.65
2022-12-03T20:11:55.474Z,12.13
2022-12-03T20:14:24.042Z,10.32
2022-12-03T20:17:02.622Z,11.75
2022-12-03T20:19:31.044Z,11.10
2022-12-03T20:22:03.016Z,11.23
2022-12-03T20:24:31.569Z,10.75
2022-12-03T20:26:59.898Z,12.38
2022-12-03T20:29:28.254Z,12.68
2022-12-03T20:31:56.604Z,10.95
2022-12-03T20:34:24.936Z,11.18
2022-12-03T20:36:53.335Z,11.60
2022-12-03T20:39:22.961Z,10.32
2022-12-03T20:41:51.270Z,10.18
2022-12-03T20:44:19.636Z,11.50
2022-12-03T20:46:47.952Z,10.10
2022-12-03T20:49:16.416Z,10.90
2022-12-03T20:51:51.034Z,11.13
2022-12-03T20:54:19.379Z,10.60
2022-12-03T20:56:49.183Z,10.30
2022-12-03T20:59:18.149Z,11.13
2022-12-03T21:01:46.632Z,10.32
2022-12-03T21:04:16.052Z,10.43
2022-12-03T21:06:44.459Z,10.32
2022-12-03T21:09:13.288Z,10.30
2022-12-03T21:11:42.417Z,10.48
2022-12-03T21:14:12.444Z,9.90
2022-12-03T21:19:30.750Z,10.68
2022-12-03T21:21:59.043Z,10.68
2022-12-03T21:24:27.350Z,10.65
2022-12-03T21:26:55.698Z,10.55
2022-12-03T21:29:25.384Z,10.25
2022-12-03T21:31:53.744Z,10.93
2022-12-03T21:34:22.153Z,12.18
2022-12-03T21:36:50.512Z,11.63
2022-12-03T21:39:19.245Z,11.32
2022-12-03T21:42:19.336Z,10.82
2022-12-03T21:44:37.191Z,11.70
2022-12-03T21:47:09.949Z,10.90
2022-12-03T21:49:42.352Z,11.15
2022-12-03T21:52:10.969Z,11.68
2022-12-03T21:54:39.341Z,11.63
2022-12-03T21:57:07.927Z,10.75
2022-12-03T21:59:37.641Z,11.18
2022-12-03T22:02:06.154Z,11.10
2022-12-03T22:04:34.654Z,10.18
2022-12-03T22:07:03.499Z,11.35
2022-12-03T22:09:32.322Z,11.35
2022-12-03T22:12:01.161Z,11.43
2022-12-03T22:14:29.856Z,10.45
2022-12-03T22:16:59.489Z,10.32
2022-12-03T22:19:27.990Z,11.32
2022-12-03T22:21:56.298Z,10.98
2022-12-03T22:24:24.646Z,10.68
2022-12-03T22:26:54.590Z,10.60
2022-12-03T22:29:22.962Z,10.35
2022-12-03T22:31:51.318Z,10.35
2022-12-03T22:34:20.971Z,11.13
2022-12-03T22:36:49.307Z,9.70
2022-12-03T22:39:17.608Z,10.82
2022-12-03T22:41:45.974Z,11.25
2022-12-03T22:44:14.291Z,11.50
2022-12-03T22:46:42.769Z,11.07
2022-12-03T22:49:11.479Z,10.63
2022-12-03T22:51:41.237Z,10.57
2022-12-03T22:54:10.263Z,9.88
2022-12-03T22:56:38.956Z,9.95
2022-12-03T22:59:07.887Z,11.15
2022-12-03T23:01:37.266Z,10.30
2022-12-03T23:04:06.321Z,10.43
2022-12-03T23:06:35.167Z,10.45
2022-12-03T23:09:05.495Z,11.38
2022-12-03T23:11:33.932Z,10.82
2022-12-03T23:14:02.253Z,12.10
2022-12-03T23:16:31.511Z,10.77
2022-12-03T23:19:00.654Z,10.00
2022-12-03T23:21:30.706Z,10.88
2022-12-03T23:23:59.320Z,10.52
2022-12-03T23:26:29.521Z,10.20
2022-12-03T23:28:57.844Z,9.80
2022-12-03T23:31:26.981Z,9.52
2022-12-03T23:33:56.137Z,9.98
2022-12-03T23:36:25.236Z,9.32
2022-12-03T23:38:53.598Z,8.75
2022-12-03T23:41:23.406Z,9.90
2022-12-03T23:43:53.314Z,9.25
2022-12-03T23:46:22.977Z,9.50
2022-12-03T23:48:51.784Z,10.25
2022-12-03T23:51:21.910Z,10.10
2022-12-03T23:53:50.378Z,10.07
2022-12-03T23:56:19.992Z,9.13
2022-12-03T23:58:48.345Z,9.13
